Time,TemperatureF,DewpointF,PressureIn,WindDirection,WindDirectionDegrees,WindSpeedMPH,WindSpeedGustMPH,Humidity,HourlyPrecipIn,Conditions,Clouds,dailyrainin,SoftwareType,DateUTC
2013-03-04 11:52:00,28.0,9.0,30.09,ENE,75,0.0,5.0,44,-99.99,,,-99.99,,2013-03-04 18:52:00,
2013-03-04 12:01:00,29.0,12.0,30.10,East,79,1.0,5.0,48,-99.99,,,-99.99,,2013-03-04 19:01:00,
2013-03-04 12:11:00,29.0,12.0,30.10,East,79,1.0,5.0,48,-99.99,,,-99.99,,2013-03-04 19:11:00,
2013-03-04 12:21:00,29.0,8.0,30.11,WNW,300,4.0,9.0,40,-99.99,,,-99.99,,2013-03-04 19:21:00,
2013-03-04 12:31:00,29.0,11.0,30.11,ENE,76,4.0,9.0,47,-99.99,,,-99.99,,2013-03-04 19:31:00,
2013-03-04 12:41:00,29.0,11.0,30.11,ENE,76,4.0,9.0,47,-99.99,,,-99.99,,2013-03-04 19:41:00,
2013-03-04 12:52:00,28.0,8.0,30.11,East,84,4.0,11.0,43,0.04,,,-99.99,,2013-03-04 19:52:00,
2013-03-04 13:01:00,28.0,10.0,30.11,East,82,3.0,11.0,47,0.03,,,-99.99,,2013-03-04 20:01:00,
2013-03-04 13:11:00,29.0,9.0,30.12,ENE,75,3.0,7.0,43,0.03,,,-99.99,,2013-03-04 20:11:00,
2013-03-04 13:21:00,29.0,9.0,30.12,ENE,75,3.0,7.0,43,0.03,,,-99.99,,2013-03-04 20:21:00,
2013-03-04 13:31:00,30.0,10.0,30.11,NE,37,3.0,10.0,43,0.02,,,-99.99,,2013-03-04 20:31:00,
2013-03-04 13:41:00,30.0,10.0,30.11,NE,37,3.0,10.0,43,0.02,,,-99.99,,2013-03-04 20:41:00,
2013-03-04 13:52:00,30.0,10.0,30.11,NE,47,4.0,8.0,43,0.02,,,-99.99,,2013-03-04 20:52:00,
2013-03-04 14:01:00,30.0,9.0,30.11,East,83,4.0,9.0,40,0.02,,,-99.99,,2013-03-04 21:01:00,
2013-03-04 14:11:00,30.0,9.0,30.11,East,83,4.0,9.0,40,0.02,,,-99.99,,2013-03-04 21:11:00,
2013-03-04 14:21:00,30.0,10.0,30.12,East,90,3.0,7.0,42,0.02,,,-99.99,,2013-03-04 21:21:00,
2013-03-04 14:31:00,30.0,11.0,30.12,ENE,78,1.0,5.0,45,0.02,,,-99.99,,2013-03-04 21:31:00,
2013-03-04 14:42:00,30.0,11.0,30.12,ENE,78,1.0,5.0,45,0.02,,,-99.99,,2013-03-04 21:42:00,
2013-03-04 14:52:00,27.0,4.0,30.14,West,262,4.0,10.0,37,0.02,,,-99.99,,2013-03-04 21:52:00,
2013-03-04 15:01:00,28.0,6.0,30.14,WSW,252,5.0,7.0,38,0.02,,,-99.99,,2013-03-04 22:01:00,
2013-03-04 15:11:00,28.0,6.0,30.14,WSW,252,5.0,7.0,38,0.02,,,-99.99,,2013-03-04 22:11:00,
2013-03-04 15:21:00,27.0,6.0,30.14,West,263,4.0,10.0,41,0.02,,,-99.99,,2013-03-04 22:21:00,
2013-03-04 15:31:00,27.0,6.0,30.14,West,262,3.0,11.0,41,0.02,,,-99.99,,2013-03-04 22:31:00,
2013-03-04 15:42:00,27.0,6.0,30.14,West,262,3.0,11.0,41,0.02,,,-99.99,,2013-03-04 22:42:00,
2013-03-04 15:52:00,27.0,8.0,30.15,WSW,238,5.0,13.0,44,0.01,,,-99.99,,2013-03-04 22:52:00,
2013-03-04 16:01:00,27.0,8.0,30.15,WSW,251,6.0,11.0,43,0.01,,,-99.99,,2013-03-04 23:01:00,
2013-03-04 16:11:00,27.0,8.0,30.15,WSW,251,6.0,11.0,43,0.01,,,-99.99,,2013-03-04 23:11:00,
2013-03-04 16:21:00,28.0,9.0,30.15,WNW,302,2.0,10.0,44,0.00,,,-99.99,,2013-03-04 23:21:00,
2013-03-04 16:31:00,28.0,9.0,30.15,WSW,252,3.0,9.0,44,0.00,,,-99.99,,2013-03-04 23:31:00,
2013-03-04 16:41:00,28.0,9.0,30.15,WSW,252,3.0,9.0,44,0.00,,,-99.99,,2013-03-04 23:41:00,
2013-03-04 16:52:00,27.0,10.0,30.15,WSW,251,4.0,12.0,48,0.00,,,-99.99,,2013-03-04 23:52:00,
2013-03-04 17:01:00,27.0,11.0,30.14,West,259,5.0,10.0,50,0.00,,,-99.99,,2013-03-05 00:01:00,
2013-03-04 17:11:00,27.0,11.0,30.14,West,259,5.0,10.0,50,0.00,,,-99.99,,2013-03-05 00:11:00,
2013-03-04 17:21:00,26.0,10.0,30.15,WSW,257,2.0,10.0,51,0.00,,,-99.99,,2013-03-05 00:21:00,
2013-03-04 17:32:00,25.0,10.0,30.17,WSW,250,4.0,11.0,52,0.00,,,-99.99,,2013-03-05 00:32:00,
2013-03-04 17:41:00,25.0,10.0,30.17,WSW,250,4.0,11.0,52,0.00,,,-99.99,,2013-03-05 00:41:00,
2013-03-04 17:52:00,24.0,11.0,30.17,WSW,241,7.0,10.0,57,0.00,,,-99.99,,2013-03-05 00:52:00,
2013-03-04 18:01:00,24.0,11.0,30.17,WSW,241,7.0,10.0,57,0.00,,,-99.99,,2013-03-05 01:01:00,
2013-03-04 18:11:00,24.0,11.0,30.17,WSW,241,7.0,10.0,57,0.00,,,-99.99,,2013-03-05 01:11:00,
2013-03-04 18:21:00,23.0,11.0,30.17,WSW,249,4.0,7.0,59,0.00,,,-99.99,,2013-03-05 01:21:00,
2013-03-04 18:32:00,23.0,11.0,30.17,WSW,249,4.0,7.0,59,0.00,,,-99.99,,2013-03-05 01:32:00,
2013-03-04 18:41:00,23.0,11.0,30.17,WSW,249,4.0,7.0,59,0.00,,,-99.99,,2013-03-05 01:41:00,
2013-03-04 18:51:00,23.0,11.0,30.17,WSW,249,4.0,7.0,59,0.00,,,-99.99,,2013-03-05 01:51:00,